createdAt,value
2017-07-15T00:01:12.629Z,13.30
2017-07-15T00:03:40.150Z,13.30
2017-07-15T00:06:08.054Z,14.03
2017-07-15T00:08:35.585Z,12.30
2017-07-15T00:11:03.108Z,13.40
2017-07-15T00:13:31.021Z,13.20
2017-07-15T00:15:58.544Z,13.07
2017-07-15T00:18:26.053Z,12.83
2017-07-15T00:20:53.861Z,12.30
2017-07-15T00:23:21.393Z,12.50
2017-07-15T00:25:48.911Z,12.23
2017-07-15T00:28:17.535Z,12.40
2017-07-15T00:30:45.062Z,11.97
2017-07-15T00:33:12.578Z,13.00
2017-07-15T00:35:40.396Z,13.23
2017-07-15T00:38:07.912Z,12.40
2017-07-15T00:40:35.457Z,12.13
2017-07-15T00:43:03.297Z,13.70
2017-07-15T00:45:30.844Z,12.43
2017-07-15T00:47:58.361Z,13.07
2017-07-15T00:50:26.299Z,13.40
2017-07-15T00:52:53.842Z,13.00
2017-07-15T00:55:21.362Z,12.93
2017-07-15T00:57:50.001Z,14.00
2017-07-15T01:00:17.514Z,12.63
2017-07-15T01:02:45.791Z,13.90
2017-07-15T01:05:13.577Z,13.20
2017-07-15T01:07:41.112Z,12.87
2017-07-15T01:10:09.394Z,12.77
2017-07-15T01:12:37.284Z,13.80
2017-07-15T01:15:04.793Z,13.80
2017-07-15T01:17:32.714Z,12.73
2017-07-15T01:20:00.521Z,13.20
2017-07-15T01:22:28.047Z,13.67
2017-07-15T01:24:55.587Z,13.50
2017-07-15T01:27:23.480Z,14.87
2017-07-15T01:29:50.989Z,14.20
2017-07-15T01:32:18.515Z,14.73
2017-07-15T01:34:46.390Z,14.50
2017-07-15T01:37:13.903Z,14.00
2017-07-15T01:39:41.430Z,14.73
2017-07-15T01:42:09.242Z,14.20
2017-07-15T01:44:36.759Z,14.37
2017-07-15T01:47:05.045Z,14.30
2017-07-15T01:49:33.678Z,13.50
2017-07-15T01:52:01.209Z,13.70
2017-07-15T01:54:28.728Z,13.20
2017-07-15T01:56:56.533Z,13.70
2017-07-15T01:59:24.037Z,13.67
2017-07-15T02:01:51.576Z,14.27
2017-07-15T02:04:19.611Z,13.77
2017-07-15T02:06:47.881Z,13.77
2017-07-15T02:09:15.380Z,13.60
2017-07-15T02:11:43.256Z,13.90
2017-07-15T02:14:10.804Z,14.70
2017-07-15T02:16:38.327Z,14.50
2017-07-15T02:19:06.907Z,14.20
2017-07-15T02:21:35.207Z,14.40
2017-07-15T02:24:02.738Z,15.83
2017-07-15T02:26:30.574Z,15.90
2017-07-15T02:28:58.082Z,15.57
2017-07-15T02:31:26.365Z,14.77
2017-07-15T02:33:54.271Z,15.07
2017-07-15T02:36:21.779Z,14.90
2017-07-15T02:38:49.291Z,15.93
2017-07-15T02:41:17.154Z,15.60
2017-07-15T02:43:44.695Z,15.60
2017-07-15T02:46:12.868Z,15.87
2017-07-15T02:48:40.693Z,15.60
2017-07-15T02:51:08.205Z,16.73
2017-07-15T02:53:35.719Z,17.60
2017-07-15T02:56:03.521Z,17.00
2017-07-15T02:58:31.030Z,18.20
2017-07-15T03:00:58.556Z,17.67
2017-07-15T03:03:26.369Z,18.23
2017-07-15T03:05:53.910Z,18.40
2017-07-15T03:08:21.428Z,18.77
2017-07-15T03:10:49.315Z,17.90
2017-07-15T03:13:16.848Z,18.23
2017-07-15T03:15:44.363Z,18.60
2017-07-15T03:18:12.309Z,19.17
2017-07-15T03:20:39.828Z,21.80
2017-07-15T03:23:07.349Z,20.30
2017-07-15T03:25:35.170Z,19.00
2017-07-15T03:28:02.692Z,17.27
2017-07-15T03:30:30.969Z,19.87
2017-07-15T03:32:58.888Z,17.70
2017-07-15T03:35:26.393Z,18.93
2017-07-15T03:37:53.900Z,17.87
2017-07-15T03:40:21.739Z,18.27
2017-07-15T03:42:49.249Z,19.17
2017-07-15T03:45:16.771Z,18.47
2017-07-15T03:47:44.659Z,18.77
2017-07-15T03:50:12.171Z,21.53
2017-07-15T03:52:40.465Z,17.73
2017-07-15T03:55:09.081Z,17.77
2017-07-15T03:57:36.591Z,17.70
2017-07-15T04:00:04.877Z,16.47
2017-07-15T04:02:33.482Z,16.70
2017-07-15T04:05:01.014Z,17.20
2017-07-15T04:07:29.286Z,16.17
2017-07-15T04:09:57.221Z,16.60
2017-07-15T04:12:24.742Z,15.87
2017-07-15T04:14:52.269Z,16.60
2017-07-15T04:17:20.106Z,16.00
2017-07-15T04:19:47.626Z,15.60
2017-07-15T04:22:15.154Z,15.73
2017-07-15T04:24:42.970Z,16.60
2017-07-15T04:27:10.481Z,16.07
2017-07-15T04:29:38.010Z,16.40
2017-07-15T04:32:05.853Z,16.50
2017-07-15T04:34:33.379Z,17.07
2017-07-15T04:37:01.699Z,17.30
2017-07-15T04:39:29.572Z,17.87
2017-07-15T04:41:57.075Z,17.27
2017-07-15T04:44:24.586Z,15.80
2017-07-15T04:46:52.465Z,17.00
2017-07-15T04:49:19.985Z,15.70
2017-07-15T04:51:48.250Z,16.27
2017-07-15T04:54:16.866Z,16.07
2017-07-15T04:56:44.439Z,17.67
2017-07-15T04:59:11.944Z,17.70
2017-07-15T05:01:40.739Z,16.63
2017-07-15T05:04:08.258Z,17.00
2017-07-15T05:06:35.795Z,16.27
2017-07-15T05:09:03.668Z,15.80
2017-07-15T05:11:31.213Z,16.67
2017-07-15T05:13:58.957Z,14.40
2017-07-15T05:16:27.579Z,16.50
2017-07-15T05:18:55.114Z,17.13
2017-07-15T05:21:22.625Z,15.30
2017-07-15T05:23:50.481Z,15.33
2017-07-15T05:26:18.007Z,14.70
2017-07-15T05:28:45.529Z,15.80
2017-07-15T05:31:13.373Z,14.90
2017-07-15T05:33:40.889Z,13.93
2017-07-15T05:36:08.402Z,15.37
2017-07-15T05:38:36.227Z,14.37
2017-07-15T05:41:03.726Z,14.30
2017-07-15T05:43:31.247Z,15.93
2017-07-15T05:45:59.128Z,15.70
2017-07-15T05:48:26.648Z,15.00
2017-07-15T05:50:54.158Z,15.87
2017-07-15T05:53:22.022Z,14.97
2017-07-15T05:55:49.526Z,15.00
2017-07-15T05:58:17.055Z,15.27
2017-07-15T06:00:44.849Z,14.63
2017-07-15T06:03:12.365Z,14.53
2017-07-15T06:05:39.892Z,13.43
2017-07-15T06:08:07.789Z,15.47
2017-07-15T06:10:35.302Z,15.10
2017-07-15T06:13:03.583Z,13.53
2017-07-15T06:15:31.501Z,14.93
2017-07-15T06:17:59.014Z,14.20
2017-07-15T06:20:27.309Z,14.90
2017-07-15T06:22:56.046Z,13.07
2017-07-15T06:25:23.574Z,13.70
2017-07-15T06:27:51.076Z,13.53
2017-07-15T06:30:18.927Z,12.53
2017-07-15T06:32:46.437Z,12.40
2017-07-15T06:35:13.983Z,11.90
2017-07-15T06:37:42.587Z,12.07
2017-07-15T06:40:10.113Z,13.30
2017-07-15T06:42:37.646Z,12.60
2017-07-15T06:45:05.495Z,12.73
2017-07-15T06:47:32.998Z,13.70
2017-07-15T06:50:00.537Z,13.20
2017-07-15T06:52:28.380Z,13.70
2017-07-15T06:54:55.907Z,14.60
2017-07-15T06:57:23.415Z,12.63
2017-07-15T06:59:51.272Z,12.20
2017-07-15T07:02:18.781Z,12.53
2017-07-15T07:04:47.081Z,10.90
2017-07-15T07:07:14.956Z,11.97
2017-07-15T07:09:42.469Z,12.20
2017-07-15T07:12:09.992Z,13.70
2017-07-15T07:14:37.866Z,11.37
2017-07-15T07:17:05.393Z,11.63
2017-07-15T07:19:32.943Z,11.83
2017-07-15T07:22:01.551Z,11.43
2017-07-15T07:24:29.995Z,13.17
2017-07-15T07:26:58.273Z,11.57
2017-07-15T07:29:26.279Z,10.53
2017-07-15T07:31:53.829Z,11.60
2017-07-15T07:34:21.356Z,11.17
2017-07-15T07:36:49.274Z,11.43
2017-07-15T07:39:16.790Z,9.10
2017-07-15T07:41:44.291Z,10.03
2017-07-15T07:44:12.176Z,9.40
2017-07-15T07:46:39.701Z,10.20
2017-07-15T07:49:07.248Z,10.00
2017-07-15T07:51:35.813Z,9.17
2017-07-15T07:54:03.317Z,8.63
2017-07-15T07:56:30.836Z,9.10
2017-07-15T07:58:58.656Z,8.07
2017-07-15T08:01:26.146Z,7.90
2017-07-15T08:03:53.651Z,8.20
2017-07-15T08:06:21.555Z,8.80
2017-07-15T08:08:49.083Z,8.40
2017-07-15T08:11:16.593Z,6.80
2017-07-15T08:13:44.410Z,7.90
2017-07-15T08:16:11.934Z,7.37
2017-07-15T08:18:39.462Z,6.70
2017-07-15T08:21:07.295Z,6.23
2017-07-15T08:23:34.825Z,7.10
2017-07-15T08:26:03.098Z,5.40
2017-07-15T08:28:31.685Z,5.43
2017-07-15T08:30:59.964Z,4.93
2017-07-15T08:33:27.489Z,5.13
2017-07-15T08:35:55.327Z,5.03
2017-07-15T08:38:22.843Z,6.40
2017-07-15T08:40:50.343Z,5.27
2017-07-15T08:43:18.244Z,4.90
2017-07-15T08:45:46.682Z,4.50
2017-07-15T08:48:14.228Z,4.80
2017-07-15T08:50:42.802Z,4.50
2017-07-15T08:53:11.092Z,5.50
2017-07-15T08:55:39.396Z,4.40
2017-07-15T08:58:07.305Z,5.57
2017-07-15T09:00:34.830Z,5.03
2017-07-15T09:03:02.397Z,5.33
2017-07-15T09:05:30.241Z,5.23
2017-07-15T09:07:57.783Z,5.00
2017-07-15T09:10:25.309Z,5.00
2017-07-15T09:12:53.108Z,4.47
2017-07-15T09:15:21.392Z,5.10
2017-07-15T09:17:49.660Z,4.50
2017-07-15T09:20:18.247Z,4.67
2017-07-15T09:22:46.530Z,4.57
2017-07-15T09:25:14.042Z,4.53
2017-07-15T09:27:42.014Z,4.57
2017-07-15T09:30:09.560Z,3.43
2017-07-15T09:32:37.089Z,5.07
2017-07-15T09:35:04.915Z,4.57
2017-07-15T09:37:33.211Z,4.77
2017-07-15T09:40:00.750Z,4.47
2017-07-15T09:42:28.563Z,4.47
2017-07-15T09:44:56.071Z,5.37
2017-07-15T09:47:23.578Z,4.40
2017-07-15T09:49:51.468Z,4.37
2017-07-15T09:52:18.967Z,3.90
2017-07-15T09:54:46.555Z,4.57
2017-07-15T09:57:14.387Z,4.70
2017-07-15T09:59:41.935Z,3.50
2017-07-15T10:02:10.445Z,4.57
2017-07-15T10:04:38.241Z,4.10
2017-07-15T10:07:05.772Z,4.57
2017-07-15T10:09:33.306Z,4.10
2017-07-15T10:12:01.153Z,3.60
2017-07-15T10:14:28.687Z,3.80
2017-07-15T10:16:56.228Z,4.27
2017-07-15T10:19:24.856Z,3.20
2017-07-15T10:21:52.432Z,3.97
2017-07-15T10:24:19.976Z,4.30
2017-07-15T10:26:47.884Z,3.60
2017-07-15T10:29:15.399Z,3.87
2017-07-15T10:31:42.953Z,3.67
2017-07-15T10:34:10.837Z,3.90
2017-07-15T10:36:38.338Z,4.00
2017-07-15T10:39:05.873Z,4.10
2017-07-15T10:41:33.716Z,3.80
2017-07-15T10:44:02.035Z,4.70
2017-07-15T10:46:29.562Z,4.27
2017-07-15T10:48:57.357Z,4.03
2017-07-15T10:51:24.877Z,4.50
2017-07-15T10:53:52.416Z,4.60
2017-07-15T10:56:20.209Z,4.37
2017-07-15T10:58:47.733Z,3.80
2017-07-15T11:01:15.257Z,3.83
2017-07-15T11:03:43.098Z,3.70
2017-07-15T11:06:10.627Z,4.10
2017-07-15T11:08:38.133Z,4.50
2017-07-15T11:11:05.966Z,4.27
2017-07-15T11:13:33.476Z,3.93
2017-07-15T11:16:00.999Z,4.40
2017-07-15T11:18:28.878Z,4.47
2017-07-15T11:20:56.428Z,4.77
2017-07-15T11:23:23.944Z,3.73
2017-07-15T11:25:53.755Z,4.00
2017-07-15T11:28:21.267Z,3.70
2017-07-15T11:30:48.923Z,3.60
2017-07-15T11:33:16.790Z,3.87
2017-07-15T11:35:44.308Z,4.60
2017-07-15T11:38:12.602Z,4.10
2017-07-15T11:40:40.439Z,8.47
2017-07-15T11:43:07.971Z,14.30
2017-07-15T11:45:35.507Z,4.37
2017-07-15T11:48:03.631Z,3.27
2017-07-15T11:50:31.142Z,3.93
2017-07-15T11:52:58.654Z,4.10
2017-07-15T11:55:26.466Z,4.20
2017-07-15T11:57:53.992Z,7.53
2017-07-15T12:00:21.509Z,6.40
2017-07-15T12:02:49.346Z,3.60
2017-07-15T12:05:16.884Z,3.53
2017-07-15T12:07:44.407Z,3.60
2017-07-15T12:10:13.174Z,3.90
2017-07-15T12:12:40.725Z,3.90
2017-07-15T12:15:08.233Z,3.77
2017-07-15T12:17:36.834Z,4.20
2017-07-15T12:20:04.368Z,4.07
2017-07-15T12:22:31.895Z,3.77
2017-07-15T12:24:59.753Z,3.83
2017-07-15T12:27:27.283Z,4.30
2017-07-15T12:29:55.578Z,4.07
2017-07-15T12:32:23.490Z,5.77
2017-07-15T12:34:50.997Z,4.50
2017-07-15T12:37:18.518Z,4.67
2017-07-15T12:39:47.096Z,5.20
2017-07-15T12:42:14.601Z,4.23
2017-07-15T12:44:42.152Z,5.00
2017-07-15T12:47:10.778Z,5.60
2017-07-15T12:49:38.279Z,5.60
2017-07-15T12:52:05.790Z,8.03
2017-07-15T12:54:33.598Z,6.07
2017-07-15T12:57:01.116Z,8.00
2017-07-15T12:59:28.635Z,5.10
2017-07-15T13:01:56.527Z,5.53
2017-07-15T13:04:24.449Z,5.27
2017-07-15T13:06:52.490Z,5.10
2017-07-15T13:09:20.308Z,5.33
2017-07-15T13:11:47.852Z,5.00
2017-07-15T13:14:15.373Z,5.47
2017-07-15T13:16:43.205Z,4.60
2017-07-15T13:19:11.488Z,4.50
2017-07-15T13:21:40.081Z,4.63
2017-07-15T13:24:07.891Z,4.73
2017-07-15T13:26:35.395Z,4.47
2017-07-15T13:29:03.684Z,4.83
2017-07-15T13:31:31.488Z,4.23
2017-07-15T13:33:59.002Z,3.33
2017-07-15T13:36:26.514Z,4.50
2017-07-15T13:38:54.339Z,4.10
2017-07-15T13:41:21.858Z,4.03
2017-07-15T13:43:51.399Z,4.90
2017-07-15T13:49:11.868Z,4.20
2017-07-15T13:52:14.364Z,4.50
2017-07-15T13:54:42.186Z,3.47
2017-07-15T13:57:09.718Z,5.10
2017-07-15T13:59:37.342Z,4.10
2017-07-15T14:02:05.161Z,4.73
2017-07-15T14:04:32.673Z,4.27
2017-07-15T14:07:00.197Z,3.73
2017-07-15T14:09:28.013Z,3.80
2017-07-15T14:11:55.588Z,3.30
2017-07-15T14:14:23.183Z,3.70
2017-07-15T14:16:51.213Z,3.67
2017-07-15T14:19:20.743Z,3.00
2017-07-15T14:21:48.319Z,3.33
2017-07-15T14:24:16.152Z,2.93
2017-07-15T14:26:43.701Z,2.90
2017-07-15T14:29:11.259Z,4.17
2017-07-15T14:31:39.978Z,3.90
2017-07-15T14:34:07.511Z,4.13
2017-07-15T14:36:37.769Z,4.00
2017-07-15T14:39:07.316Z,3.30
2017-07-15T14:41:35.700Z,3.23
2017-07-15T14:44:03.265Z,3.60
2017-07-15T14:46:31.095Z,3.57
2017-07-15T14:48:58.648Z,2.70
2017-07-15T14:51:26.564Z,3.17
2017-07-15T14:53:54.442Z,3.50
2017-07-15T14:56:21.979Z,3.27
2017-07-15T14:58:52.364Z,3.53
2017-07-15T15:01:20.250Z,3.33
2017-07-15T15:03:47.755Z,3.20
2017-07-15T15:06:15.799Z,3.70
2017-07-15T15:08:44.604Z,3.97
2017-07-15T15:11:12.144Z,4.07
2017-07-15T15:13:39.656Z,4.00
2017-07-15T15:16:08.821Z,4.43
2017-07-15T15:18:37.072Z,3.97
2017-07-15T15:21:10.549Z,3.57
2017-07-15T15:23:38.644Z,4.10
2017-07-15T15:26:07.191Z,3.77
2017-07-15T15:28:34.996Z,3.47
2017-07-15T15:31:04.790Z,4.93
2017-07-15T15:33:37.160Z,4.43
2017-07-15T15:36:05.031Z,4.20
2017-07-15T15:38:32.547Z,3.60
2017-07-15T15:41:01.825Z,3.10
2017-07-15T15:43:29.672Z,3.70
2017-07-15T15:45:57.188Z,3.40
2017-07-15T15:48:24.731Z,3.03
2017-07-15T15:50:52.647Z,3.20
2017-07-15T15:53:20.159Z,3.87
2017-07-15T15:55:47.694Z,3.53
2017-07-15T15:58:15.548Z,3.60
2017-07-15T16:00:43.134Z,3.40
2017-07-15T16:03:11.465Z,3.20
2017-07-15T16:05:39.530Z,3.60
2017-07-15T16:08:07.072Z,3.43
2017-07-15T16:10:35.516Z,3.57
2017-07-15T16:13:03.371Z,3.30
2017-07-15T16:15:30.902Z,3.20
2017-07-15T16:17:58.427Z,3.10
2017-07-15T16:20:26.450Z,3.07
2017-07-15T16:22:54.042Z,3.40
2017-07-15T16:25:21.540Z,2.87
2017-07-15T16:27:49.358Z,2.80
2017-07-15T16:30:18.397Z,7.87
2017-07-15T16:32:46.700Z,3.23
2017-07-15T16:35:14.518Z,3.73
2017-07-15T16:37:42.028Z,3.90
2017-07-15T16:40:09.574Z,3.87
2017-07-15T16:42:37.413Z,4.73
2017-07-15T16:45:04.922Z,4.50
2017-07-15T16:47:32.430Z,4.03
2017-07-15T16:50:00.290Z,4.40
2017-07-15T16:52:27.800Z,4.30
2017-07-15T16:54:55.321Z,4.70
2017-07-15T16:57:23.163Z,4.13
2017-07-15T16:59:50.661Z,4.83
2017-07-15T17:02:18.946Z,5.10
2017-07-15T17:04:46.774Z,4.60
2017-07-15T17:07:14.329Z,5.10
2017-07-15T17:09:41.851Z,5.67
2017-07-15T17:12:09.703Z,5.03
2017-07-15T17:14:37.267Z,5.20
2017-07-15T17:17:04.778Z,5.70
2017-07-15T17:19:32.718Z,6.60
2017-07-15T17:22:00.248Z,5.33
2017-07-15T17:24:27.779Z,6.20
2017-07-15T17:26:55.704Z,5.47
2017-07-15T17:29:23.218Z,6.97
2017-07-15T17:31:50.744Z,6.17
2017-07-15T17:34:22.091Z,5.80
2017-07-15T17:36:49.617Z,6.20
2017-07-15T17:39:17.991Z,5.90
2017-07-15T17:41:45.900Z,4.87
2017-07-15T17:44:13.411Z,5.83
2017-07-15T17:46:40.920Z,5.13
2017-07-15T17:49:08.756Z,6.10
2017-07-15T17:51:36.307Z,6.10
2017-07-15T17:54:03.839Z,6.07
2017-07-15T17:56:31.880Z,6.17
2017-07-15T17:58:59.398Z,5.60
2017-07-15T18:01:26.897Z,5.57
2017-07-15T18:03:55.708Z,5.03
2017-07-15T18:06:23.242Z,6.00
2017-07-15T18:08:50.776Z,5.70
2017-07-15T18:11:18.804Z,6.63
2017-07-15T18:13:46.349Z,6.20
2017-07-15T18:16:13.875Z,7.00
2017-07-15T18:18:41.816Z,6.90
2017-07-15T18:21:09.319Z,6.50
2017-07-15T18:23:36.899Z,6.40
2017-07-15T18:26:04.757Z,7.30
2017-07-15T18:28:32.295Z,10.17
2017-07-15T18:30:59.863Z,7.80
2017-07-15T18:33:27.728Z,8.57
2017-07-15T18:35:55.288Z,6.87
2017-07-15T18:38:22.824Z,7.03
2017-07-15T18:40:51.839Z,7.33
2017-07-15T18:43:22.017Z,7.17
2017-07-15T18:45:49.637Z,7.77
2017-07-15T18:48:18.326Z,7.50
2017-07-15T18:50:46.871Z,7.87
2017-07-15T18:53:14.454Z,6.97
2017-07-15T18:55:42.377Z,7.97
2017-07-15T18:58:10.014Z,7.50
2017-07-15T19:00:38.286Z,7.80
2017-07-15T19:03:06.355Z,9.27
2017-07-15T19:05:33.908Z,8.50
2017-07-15T19:08:01.468Z,9.33
2017-07-15T19:10:29.299Z,7.67
2017-07-15T19:12:56.842Z,8.00
2017-07-15T19:15:24.396Z,7.97
2017-07-15T19:17:53.051Z,8.40
2017-07-15T19:20:20.585Z,8.80
2017-07-15T19:22:48.094Z,8.23
2017-07-15T19:25:16.063Z,7.73
2017-07-15T19:27:43.591Z,8.03
2017-07-15T19:30:11.103Z,7.67
2017-07-15T19:32:39.759Z,9.37
2017-07-15T19:35:07.289Z,8.17
2017-07-15T19:37:34.865Z,8.40
2017-07-15T19:40:02.753Z,8.77
2017-07-15T19:42:30.276Z,7.40
2017-07-15T19:44:57.821Z,9.13
2017-07-15T19:47:25.816Z,8.60
2017-07-15T19:49:53.418Z,7.60
2017-07-15T19:52:21.745Z,8.10
2017-07-15T19:54:49.611Z,9.03
2017-07-15T19:57:17.135Z,7.87
2017-07-15T19:59:44.670Z,8.73
2017-07-15T20:02:13.370Z,8.67
2017-07-15T20:04:40.900Z,8.90
2017-07-15T20:07:08.441Z,9.60
2017-07-15T20:09:36.410Z,8.93
2017-07-15T20:12:04.502Z,8.30
2017-07-15T20:14:32.692Z,8.40
2017-07-15T20:17:00.545Z,7.87
2017-07-15T20:19:28.189Z,8.53
2017-07-15T20:21:55.718Z,10.73
2017-07-15T20:24:23.556Z,10.10
2017-07-15T20:26:51.070Z,8.90
2017-07-15T20:29:18.584Z,10.33
2017-07-15T20:31:46.511Z,13.07
2017-07-15T20:34:14.032Z,11.73
2017-07-15T20:36:47.584Z,11.87
2017-07-15T20:39:15.172Z,10.17
2017-07-15T20:41:42.695Z,8.70
2017-07-15T20:44:11.430Z,9.33
2017-07-15T20:46:39.849Z,14.10
2017-07-15T20:49:07.516Z,12.77
2017-07-15T20:51:35.377Z,16.17
2017-07-15T20:54:08.501Z,12.20
2017-07-15T20:56:36.310Z,10.50
2017-07-15T20:59:03.818Z,13.77
2017-07-15T21:01:31.345Z,54.47
2017-07-15T21:03:59.279Z,61.67
2017-07-15T21:06:27.556Z,16.97
2017-07-15T21:08:55.835Z,10.17
2017-07-15T21:11:25.504Z,10.00
2017-07-15T21:13:53.031Z,10.00
2017-07-15T21:16:20.563Z,11.30
2017-07-15T21:18:49.140Z,9.80
2017-07-15T21:21:16.691Z,12.07
2017-07-15T21:23:44.212Z,9.07
2017-07-15T21:26:12.104Z,9.87
2017-07-15T21:28:39.653Z,10.97
2017-07-15T21:31:07.179Z,11.77
2017-07-15T21:33:35.021Z,11.77
2017-07-15T21:36:03.325Z,11.60
2017-07-15T21:38:30.851Z,11.67
2017-07-15T21:40:59.429Z,11.77
2017-07-15T21:43:28.950Z,13.30
2017-07-15T21:45:58.194Z,16.40
2017-07-15T21:48:26.005Z,13.50
2017-07-15T21:50:53.519Z,13.43
2017-07-15T21:53:21.054Z,12.90
2017-07-15T21:55:48.940Z,12.30
2017-07-15T21:58:16.444Z,11.80
2017-07-15T22:00:43.967Z,12.23
2017-07-15T22:03:11.826Z,11.40
2017-07-15T22:05:39.338Z,10.30
2017-07-15T22:08:06.851Z,11.27
2017-07-15T22:10:34.665Z,10.30
2017-07-15T22:13:02.175Z,13.97
2017-07-15T22:15:29.687Z,14.03
2017-07-15T22:17:57.498Z,12.37
2017-07-15T22:20:25.016Z,11.80
2017-07-15T22:22:53.295Z,15.43
2017-07-15T22:25:21.874Z,24.27
2017-07-15T22:27:49.384Z,27.17
2017-07-15T22:30:16.886Z,28.73
2017-07-15T22:32:44.694Z,28.93
2017-07-15T22:35:12.219Z,31.13
2017-07-15T22:37:39.743Z,29.43
2017-07-15T22:40:07.583Z,31.27
2017-07-15T22:42:35.103Z,31.90
2017-07-15T22:45:02.635Z,31.00
2017-07-15T22:47:30.481Z,28.27
2017-07-15T22:49:58.009Z,26.93
2017-07-15T22:52:25.515Z,25.63
2017-07-15T22:54:53.350Z,26.37
2017-07-15T22:57:20.861Z,27.93
2017-07-15T22:59:48.385Z,22.87
2017-07-15T23:02:16.199Z,20.80
2017-07-15T23:04:44.504Z,22.33
2017-07-15T23:07:12.023Z,21.57
2017-07-15T23:09:39.861Z,20.23
2017-07-15T23:12:07.374Z,20.47
2017-07-15T23:14:36.658Z,20.57
2017-07-15T23:17:04.466Z,20.83
2017-07-15T23:19:31.985Z,18.73
2017-07-15T23:21:59.485Z,20.43
2017-07-15T23:24:27.321Z,18.50
2017-07-15T23:26:55.594Z,17.47
2017-07-15T23:29:23.871Z,20.60
2017-07-15T23:31:51.780Z,21.50
2017-07-15T23:34:19.294Z,20.67
2017-07-15T23:36:50.432Z,18.57
2017-07-15T23:39:18.221Z,16.90
2017-07-15T23:41:46.505Z,16.17
2017-07-15T23:44:14.795Z,16.10
2017-07-15T23:46:42.670Z,18.23
2017-07-15T23:49:10.188Z,16.43
2017-07-15T23:51:38.467Z,18.53
2017-07-15T23:54:06.299Z,18.73
2017-07-15T23:56:33.810Z,19.37
2017-07-15T23:59:01.320Z,18.30
